createdAt,value
2023-01-09T00:05:16.872Z,1.85
2023-01-09T00:08:20.039Z,2.38
2023-01-09T00:11:23.691Z,2.17
2023-01-09T00:14:26.983Z,1.95
2023-01-09T00:17:30.059Z,2.15
2023-01-09T00:20:33.342Z,3.97
2023-01-09T00:23:37.441Z,9.27
2023-01-09T00:26:41.197Z,9.52
2023-01-09T00:29:50.199Z,10.55
2023-01-09T00:32:56.101Z,9.30
2023-01-09T00:35:59.325Z,4.20
2023-01-09T00:39:02.872Z,9.13
2023-01-09T00:42:07.712Z,5.65
2023-01-09T00:45:15.428Z,1.53
2023-01-09T00:48:27.200Z,3.42
2023-01-09T00:51:30.476Z,2.08
2023-01-09T00:54:33.815Z,3.20
2023-01-09T00:57:37.122Z,1.80
2023-01-09T01:00:40.280Z,2.83
2023-01-09T01:03:43.374Z,2.83
2023-01-09T01:07:04.840Z,3.00
2023-01-09T01:10:11.246Z,3.95
2023-01-09T01:13:15.004Z,5.13
2023-01-09T01:16:19.103Z,7.72
2023-01-09T01:19:22.779Z,3.55
2023-01-09T01:22:25.900Z,4.90
2023-01-09T01:25:29.248Z,8.43
2023-01-09T01:28:32.449Z,9.13
2023-01-09T01:31:35.584Z,18.70
2023-01-09T01:34:38.743Z,17.83
2023-01-09T01:37:42.104Z,21.63
2023-01-09T01:40:45.162Z,17.30
2023-01-09T01:43:56.886Z,18.10
2023-01-09T01:47:00.124Z,12.20
2023-01-09T01:50:10.988Z,16.63
2023-01-09T01:53:29.875Z,21.02
2023-01-09T01:56:45.664Z,15.10
2023-01-09T01:59:53.919Z,18.65
2023-01-09T02:02:57.082Z,17.17
2023-01-09T02:06:00.533Z,16.67
2023-01-09T02:09:06.297Z,13.68
2023-01-09T02:12:35.390Z,16.67
2023-01-09T02:16:02.746Z,18.98
2023-01-09T02:19:38.841Z,23.98
2023-01-09T02:23:06.794Z,20.90
2023-01-09T02:26:31.003Z,16.17
2023-01-09T02:29:37.280Z,13.82
2023-01-09T02:32:51.574Z,23.58
2023-01-09T02:36:17.261Z,25.88
2023-01-09T02:39:31.907Z,20.92
2023-01-09T02:42:36.990Z,18.85
2023-01-09T02:45:40.248Z,15.63
2023-01-09T02:48:45.398Z,18.33
2023-01-09T02:52:04.752Z,20.13
2023-01-09T02:55:07.938Z,20.67
2023-01-09T02:58:13.538Z,23.20
2023-01-09T03:01:19.785Z,17.58
2023-01-09T03:04:39.024Z,22.02
2023-01-09T03:07:48.982Z,22.58
2023-01-09T03:11:02.725Z,19.42
2023-01-09T03:14:13.262Z,18.77
2023-01-09T03:17:26.483Z,20.77
2023-01-09T03:20:32.136Z,18.92
2023-01-09T03:23:59.765Z,21.52
2023-01-09T03:27:03.262Z,21.52
2023-01-09T03:30:07.204Z,24.13
2023-01-09T03:33:11.045Z,29.15
2023-01-09T03:36:15.382Z,29.50
2023-01-09T03:42:21.255Z,22.70
2023-01-09T03:45:24.402Z,26.05
2023-01-09T03:48:28.088Z,24.80
2023-01-09T03:51:31.263Z,32.72
2023-01-09T03:54:34.320Z,35.30
2023-01-09T03:57:37.517Z,28.17
2023-01-09T04:00:41.288Z,29.03
2023-01-09T04:03:44.591Z,24.88
2023-01-09T04:06:47.704Z,20.83
2023-01-09T04:09:50.992Z,25.05
2023-01-09T04:12:54.176Z,24.95
2023-01-09T04:15:57.337Z,27.48
2023-01-09T04:19:00.511Z,33.55
2023-01-09T04:22:03.563Z,42.47
2023-01-09T04:25:07.236Z,40.20
2023-01-09T04:28:10.473Z,44.08
2023-01-09T04:31:13.563Z,26.67
2023-01-09T04:34:16.676Z,34.45
2023-01-09T04:37:19.849Z,37.22
2023-01-09T04:40:23.005Z,46.08
2023-01-09T04:43:26.399Z,28.60
2023-01-09T04:46:29.549Z,40.83
2023-01-09T04:49:32.691Z,39.20
2023-01-09T04:52:37.579Z,38.45
2023-01-09T04:55:44.854Z,36.83
2023-01-09T04:58:48.248Z,37.92
2023-01-09T05:01:53.602Z,38.42
2023-01-09T05:04:56.883Z,36.35
2023-01-09T05:08:00.252Z,38.00
2023-01-09T05:11:03.478Z,38.58
2023-01-09T05:14:06.695Z,37.55
2023-01-09T05:17:09.880Z,38.50
2023-01-09T05:20:13.197Z,40.03
2023-01-09T05:23:16.373Z,42.15
2023-01-09T05:26:24.604Z,45.17
2023-01-09T05:29:27.883Z,47.40
2023-01-09T05:32:31.008Z,52.85
2023-01-09T05:35:34.254Z,47.60
2023-01-09T05:38:37.654Z,48.08
2023-01-09T05:41:40.683Z,45.65
2023-01-09T05:44:43.739Z,48.42
2023-01-09T05:47:47.178Z,47.53
2023-01-09T05:50:50.423Z,46.63
2023-01-09T05:53:53.540Z,46.83
2023-01-09T05:56:56.680Z,47.10
2023-01-09T05:59:59.818Z,48.20
2023-01-09T06:03:03.037Z,51.42
2023-01-09T06:06:06.485Z,51.25
2023-01-09T06:09:09.738Z,49.00
2023-01-09T06:12:12.898Z,49.85
2023-01-09T06:15:16.220Z,48.40
2023-01-09T06:18:19.538Z,52.67
2023-01-09T06:21:22.816Z,50.72
2023-01-09T06:24:26.082Z,44.58
2023-01-09T06:27:29.265Z,46.30
2023-01-09T06:30:32.442Z,49.33
2023-01-09T06:33:35.655Z,46.45
2023-01-09T06:36:38.902Z,47.38
2023-01-09T06:39:41.975Z,49.45
2023-01-09T06:42:46.512Z,50.83
2023-01-09T06:45:49.914Z,49.78
2023-01-09T06:48:54.638Z,47.90
2023-01-09T06:51:57.799Z,49.20
2023-01-09T06:55:00.775Z,50.72
2023-01-09T06:58:03.876Z,50.22
2023-01-09T07:01:07.136Z,51.75
2023-01-09T07:04:13.467Z,51.10
2023-01-09T07:07:16.874Z,50.00
2023-01-09T07:10:20.024Z,48.67
2023-01-09T07:13:23.040Z,50.47
2023-01-09T07:16:26.293Z,49.38
2023-01-09T07:19:29.470Z,51.40
2023-01-09T07:22:32.567Z,48.92
2023-01-09T07:25:35.676Z,51.35
2023-01-09T07:28:38.803Z,56.40
2023-01-09T07:31:42.057Z,50.10
2023-01-09T07:34:45.365Z,50.10
2023-01-09T07:37:48.555Z,48.70
2023-01-09T07:40:51.795Z,64.25
2023-01-09T07:43:54.948Z,59.38
2023-01-09T07:46:58.157Z,58.88
2023-01-09T07:50:01.249Z,56.13
2023-01-09T07:53:04.354Z,52.60
2023-01-09T07:56:07.859Z,51.30
2023-01-09T07:59:11.056Z,52.63
2023-01-09T08:02:14.381Z,57.63
2023-01-09T08:05:17.524Z,62.00
2023-01-09T08:08:20.681Z,57.95
2023-01-09T08:11:23.860Z,58.13
2023-01-09T08:14:26.996Z,60.20
2023-01-09T08:17:30.087Z,59.80
2023-01-09T08:20:33.527Z,56.03
2023-01-09T08:23:36.661Z,38.90
2023-01-09T08:26:39.783Z,51.17
2023-01-09T08:29:42.827Z,55.70
2023-01-09T08:32:50.950Z,52.33
2023-01-09T08:35:56.557Z,52.60
2023-01-09T08:38:59.729Z,51.75
2023-01-09T08:42:21.152Z,50.65
2023-01-09T08:45:42.452Z,57.38
2023-01-09T08:48:45.635Z,63.80
2023-01-09T08:51:48.743Z,60.50
2023-01-09T08:54:51.999Z,76.07
2023-01-09T08:57:55.898Z,104.70
2023-01-09T09:01:01.928Z,94.00
2023-01-09T09:04:06.061Z,76.18
2023-01-09T09:07:09.224Z,66.78
2023-01-09T09:10:12.506Z,55.42
2023-01-09T09:13:15.821Z,53.95
2023-01-09T09:16:19.053Z,59.08
2023-01-09T09:19:22.368Z,57.22
2023-01-09T09:22:25.456Z,68.75
2023-01-09T09:25:29.107Z,59.47
2023-01-09T09:28:32.743Z,32.92
2023-01-09T09:31:39.160Z,46.90
2023-01-09T09:34:42.768Z,40.22
2023-01-09T09:37:58.325Z,30.70
2023-01-09T09:41:51.251Z,31.67
2023-01-09T09:45:17.760Z,23.13
2023-01-09T09:48:29.861Z,16.98
2023-01-09T09:51:40.745Z,25.58
2023-01-09T09:54:51.226Z,20.83
2023-01-09T09:57:55.387Z,17.75
2023-01-09T10:01:00.944Z,21.23
2023-01-09T10:04:11.105Z,18.83
2023-01-09T10:07:42.393Z,18.30
2023-01-09T10:10:53.459Z,23.67
2023-01-09T10:14:08.154Z,25.83
2023-01-09T10:18:08.601Z,21.33
2023-01-09T10:21:46.675Z,29.67
2023-01-09T10:25:30.065Z,25.70
2023-01-09T10:29:00.777Z,23.55
2023-01-09T10:32:21.107Z,20.88
2023-01-09T10:35:49.237Z,14.38
2023-01-09T10:38:56.371Z,32.03
2023-01-09T10:42:11.986Z,23.05
2023-01-09T10:45:47.787Z,18.67
2023-01-09T10:49:20.451Z,23.85
2023-01-09T10:52:34.235Z,25.17
2023-01-09T10:55:59.340Z,31.80
2023-01-09T10:59:03.980Z,35.80
2023-01-09T11:02:29.464Z,30.38
2023-01-09T11:05:42.517Z,35.63
2023-01-09T11:08:51.991Z,44.22
2023-01-09T11:11:56.018Z,62.72
2023-01-09T11:15:21.982Z,56.95
2023-01-09T11:18:31.160Z,62.10
2023-01-09T11:21:43.172Z,61.42
2023-01-09T11:25:08.502Z,50.30
2023-01-09T11:28:12.096Z,45.55
2023-01-09T11:31:29.324Z,63.67
2023-01-09T11:34:36.128Z,46.63
2023-01-09T11:37:40.895Z,46.10
2023-01-09T11:40:57.055Z,43.90
2023-01-09T11:44:04.450Z,33.17
2023-01-09T11:47:27.652Z,39.03
2023-01-09T11:50:33.655Z,23.80
2023-01-09T11:53:54.227Z,26.88
2023-01-09T11:56:58.338Z,25.65
2023-01-09T12:00:09.122Z,25.02
2023-01-09T12:03:48.391Z,25.23
2023-01-09T12:07:26.610Z,22.52
2023-01-09T12:10:39.181Z,20.65
2023-01-09T12:14:16.994Z,15.90
2023-01-09T12:17:26.665Z,25.30
2023-01-09T12:20:52.253Z,27.15
2023-01-09T12:24:32.960Z,30.45
2023-01-09T12:28:16.364Z,32.70
2023-01-09T12:31:25.767Z,52.08
2023-01-09T12:34:45.488Z,75.00
2023-01-09T12:38:07.397Z,85.10
2023-01-09T12:41:38.932Z,65.82
2023-01-09T12:44:52.237Z,87.15
2023-01-09T12:48:10.250Z,81.57
2023-01-09T12:51:42.038Z,67.60
2023-01-09T12:54:54.874Z,63.03
2023-01-09T12:58:06.458Z,57.67
2023-01-09T13:01:28.083Z,54.13
2023-01-09T13:04:42.180Z,39.15
2023-01-09T13:08:13.966Z,38.42
2023-01-09T13:11:44.960Z,22.77
2023-01-09T13:14:53.441Z,34.30
2023-01-09T13:18:25.465Z,45.88
2023-01-09T13:21:34.612Z,53.33
2023-01-09T13:24:53.112Z,100.82
2023-01-09T13:28:02.973Z,55.03
2023-01-09T13:31:21.412Z,65.47
2023-01-09T13:34:30.256Z,92.75
2023-01-09T13:37:36.169Z,54.22
2023-01-09T13:40:39.323Z,50.42
2023-01-09T13:43:55.551Z,64.30
2023-01-09T13:47:02.618Z,78.53
2023-01-09T13:50:09.793Z,74.45
2023-01-09T13:53:41.379Z,74.20
2023-01-09T13:57:19.585Z,58.60
2023-01-09T14:00:22.885Z,78.72
2023-01-09T14:03:34.802Z,76.27
2023-01-09T14:06:38.104Z,64.95
2023-01-09T14:09:48.545Z,64.77
2023-01-09T14:12:55.522Z,54.72
2023-01-09T14:16:24.160Z,45.15
2023-01-09T14:19:35.773Z,50.42
2023-01-09T14:22:50.295Z,46.75
2023-01-09T14:26:03.569Z,19.38
2023-01-09T14:29:44.217Z,23.20
2023-01-09T14:33:00.226Z,19.98
2023-01-09T14:36:14.263Z,46.45
2023-01-09T14:39:19.512Z,24.27
2023-01-09T14:42:30.157Z,38.42
2023-01-09T14:45:36.289Z,60.38
2023-01-09T14:48:50.993Z,65.75
2023-01-09T14:55:03.327Z,55.13
2023-01-09T14:58:36.838Z,48.85
2023-01-09T15:01:45.271Z,45.78
2023-01-09T15:04:48.500Z,60.08
2023-01-09T15:08:04.205Z,57.63
2023-01-09T15:11:07.533Z,76.68
2023-01-09T15:14:26.207Z,76.67
2023-01-09T15:17:37.557Z,68.68
2023-01-09T15:20:40.966Z,65.80
2023-01-09T15:23:44.536Z,71.65
2023-01-09T15:26:54.423Z,61.92
2023-01-09T15:30:15.374Z,73.57
2023-01-09T15:33:19.838Z,43.80
2023-01-09T15:36:25.132Z,71.63
2023-01-09T15:39:40.492Z,72.93
2023-01-09T15:43:01.767Z,69.03
2023-01-09T15:46:05.161Z,55.28
2023-01-09T15:49:13.733Z,54.93
2023-01-09T15:52:18.990Z,54.13
2023-01-09T15:55:39.196Z,46.97
2023-01-09T15:58:50.464Z,38.08
2023-01-09T16:02:20.722Z,48.15
2023-01-09T16:05:33.744Z,43.38
2023-01-09T16:08:54.438Z,46.75
2023-01-09T16:12:00.986Z,44.33
2023-01-09T16:15:04.349Z,32.05
2023-01-09T16:18:32.609Z,41.10
2023-01-09T16:21:38.815Z,46.72
2023-01-09T16:24:42.996Z,46.45
2023-01-09T16:31:01.603Z,36.47
2023-01-09T16:34:07.676Z,42.22
2023-01-09T16:37:13.855Z,43.50
2023-01-09T16:40:23.229Z,38.97
2023-01-09T16:43:26.395Z,45.30
2023-01-09T16:46:29.879Z,57.88
2023-01-09T16:49:34.883Z,36.28
2023-01-09T16:52:38.116Z,37.60
2023-01-09T16:55:41.503Z,34.13
2023-01-09T16:58:45.108Z,30.17
2023-01-09T17:01:51.667Z,29.70
2023-01-09T17:04:59.803Z,28.65
2023-01-09T17:08:02.916Z,30.33
2023-01-09T17:11:06.286Z,21.10
2023-01-09T17:14:12.501Z,26.27
2023-01-09T17:17:17.240Z,23.83
2023-01-09T17:20:23.438Z,24.73
2023-01-09T17:23:26.592Z,25.75
2023-01-09T17:26:47.906Z,35.03
2023-01-09T17:29:51.204Z,28.88
2023-01-09T17:32:54.315Z,23.50
2023-01-09T17:35:58.057Z,27.10
2023-01-09T17:39:02.492Z,34.72
2023-01-09T17:42:05.690Z,33.33
2023-01-09T17:45:09.148Z,25.03
2023-01-09T17:48:20.371Z,24.90
2023-01-09T17:51:23.667Z,27.50
2023-01-09T17:54:26.824Z,27.23
2023-01-09T17:57:29.946Z,32.40
2023-01-09T18:00:37.375Z,24.90
2023-01-09T18:03:41.630Z,23.98
2023-01-09T18:09:48.287Z,12.73
2023-01-09T18:12:53.079Z,23.38
2023-01-09T18:15:56.118Z,23.58
2023-01-09T18:18:59.729Z,14.85
2023-01-09T18:22:04.472Z,26.13
2023-01-09T18:25:08.846Z,25.75
2023-01-09T18:28:15.959Z,25.17
2023-01-09T18:31:23.452Z,26.10
2023-01-09T18:34:26.815Z,31.25
2023-01-09T18:37:30.032Z,25.97
2023-01-09T18:40:33.917Z,31.38
2023-01-09T18:43:37.073Z,15.63
2023-01-09T18:46:41.502Z,26.17
2023-01-09T18:49:44.682Z,38.08
2023-01-09T18:52:47.960Z,29.55
2023-01-09T18:55:51.101Z,25.90
2023-01-09T18:58:58.545Z,24.50
2023-01-09T19:02:02.345Z,27.90
2023-01-09T19:05:05.926Z,26.33
2023-01-09T19:08:09.043Z,25.30
2023-01-09T19:11:12.885Z,28.92
2023-01-09T19:14:16.042Z,29.17
2023-01-09T19:17:19.382Z,24.60
2023-01-09T19:20:22.611Z,35.53
2023-01-09T19:23:25.738Z,32.00
2023-01-09T19:26:31.541Z,32.88
2023-01-09T19:29:36.601Z,33.78
2023-01-09T19:32:40.865Z,35.80
2023-01-09T19:35:49.430Z,27.40
2023-01-09T19:39:00.440Z,35.47
2023-01-09T19:42:03.896Z,29.40
2023-01-09T19:45:07.832Z,33.47
2023-01-09T19:48:10.900Z,30.80
2023-01-09T19:51:16.537Z,32.72
2023-01-09T19:54:19.733Z,33.70
2023-01-09T19:57:23.073Z,33.80
2023-01-09T20:00:26.115Z,31.80
2023-01-09T20:03:29.230Z,26.90
2023-01-09T20:06:32.677Z,29.85
2023-01-09T20:09:35.805Z,27.63
2023-01-09T20:12:39.100Z,28.60
2023-01-09T20:15:43.361Z,21.67
2023-01-09T20:21:50.090Z,13.27
2023-01-09T20:24:53.289Z,21.17
2023-01-09T20:27:58.751Z,34.45
2023-01-09T20:31:03.644Z,44.45
2023-01-09T20:34:06.858Z,57.75
2023-01-09T20:37:10.455Z,52.63
2023-01-09T20:40:13.695Z,57.35
2023-01-09T20:43:17.176Z,31.55
2023-01-09T20:46:21.362Z,59.70
2023-01-09T20:49:24.602Z,54.55
2023-01-09T20:52:27.783Z,68.15
2023-01-09T20:55:31.194Z,59.88
2023-01-09T20:58:35.217Z,47.05
2023-01-09T21:01:39.531Z,55.58
2023-01-09T21:07:45.446Z,45.85
2023-01-09T21:10:48.757Z,47.85
2023-01-09T21:13:52.116Z,53.43
2023-01-09T21:16:55.606Z,55.13
2023-01-09T21:19:58.682Z,51.80
2023-01-09T21:23:01.892Z,49.78
2023-01-09T21:26:13.935Z,46.55
2023-01-09T21:29:17.103Z,40.85
2023-01-09T21:32:20.451Z,39.83
2023-01-09T21:35:23.460Z,39.63
2023-01-09T21:38:27.775Z,37.10
2023-01-09T21:41:49.332Z,44.47
2023-01-09T21:45:10.924Z,31.67
2023-01-09T21:48:14.614Z,31.20
2023-01-09T21:51:18.465Z,33.25
2023-01-09T21:54:23.699Z,21.30
2023-01-09T21:57:26.963Z,27.77
2023-01-09T22:00:31.104Z,47.65
2023-01-09T22:03:34.341Z,65.13
2023-01-09T22:06:37.393Z,71.70
2023-01-09T22:09:40.492Z,90.28
2023-01-09T22:13:03.475Z,50.70
2023-01-09T22:16:08.360Z,60.40
2023-01-09T22:19:18.013Z,70.70
2023-01-09T22:22:21.183Z,69.72
2023-01-09T22:25:25.115Z,79.88
2023-01-09T22:28:28.373Z,82.57
2023-01-09T22:31:33.481Z,71.82
2023-01-09T22:34:36.638Z,75.35
2023-01-09T22:37:39.853Z,73.13
2023-01-09T22:40:43.829Z,74.63
2023-01-09T22:43:47.052Z,62.58
2023-01-09T22:46:50.199Z,61.28
2023-01-09T22:49:53.881Z,77.88
2023-01-09T22:52:57.164Z,51.88
2023-01-09T22:56:04.172Z,72.28
2023-01-09T22:59:08.583Z,72.50
2023-01-09T23:05:15.305Z,64.72
2023-01-09T23:08:18.388Z,75.88
2023-01-09T23:11:47.540Z,73.43
2023-01-09T23:14:50.713Z,70.35
2023-01-09T23:17:53.768Z,68.03
2023-01-09T23:20:59.383Z,74.65
2023-01-09T23:24:02.834Z,47.40
2023-01-09T23:27:06.332Z,51.15
2023-01-09T23:30:10.870Z,45.22
2023-01-09T23:33:14.619Z,50.47
2023-01-09T23:36:17.748Z,49.78
2023-01-09T23:39:21.077Z,39.78
2023-01-09T23:42:42.688Z,50.10
2023-01-09T23:45:46.890Z,37.38
2023-01-09T23:51:53.008Z,53.30
2023-01-09T23:54:57.319Z,45.53
2023-01-09T23:58:00.449Z,55.67
